Time;durP1;ratioP1;P1;durP2;ratioP2;P2;SDS_P1;SDS_P2;PMS_P1;PMS_P2;Temp;Humidity;BMP_temperature;BMP_pressure;BME280_temperature;BME280_humidity;BME280_pressure;Samples;Min_cycle;Max_cycle;Signal;HPM_P1;HPM_P2
2021/10/26 09:57:08;;;;;;;0.80;0.80;;;;;;;;;;7371151;19;132650;-14
2021/10/26 09:59:47;;;;;;;0.60;0.60;;;;;;;;;;7365525;19;153682;-14
2021/10/26 10:02:26;;;;;;;0.60;0.60;;;;;;;;;;7364868;19;161830;-18
2021/10/26 10:05:06;;;;;;;0.68;0.68;;;;;;;;;;7362437;19;162589;-14
2021/10/26 10:07:38;;;;;;;;;;;;;;;;;;7367125;19;153890;-15
2021/10/26 10:10:12;;;;;;;0.70;0.70;;;;;;;;;;7369346;19;153574;-16
2021/10/26 10:13:03;;;;;;;0.50;0.50;;;;;;;;;;7363170;19;161808;-15
2021/10/26 10:15:35;;;;;;;0.70;0.70;;;;;;;;;;7362996;19;162608;-15
2021/10/26 10:18:07;;;;;;;0.40;0.40;;;;;;;;;;7364456;19;153876;-15
2021/10/26 10:20:38;;;;;;;0.73;0.70;;;;;;;;;;7364517;19;153539;-17
2021/10/26 10:23:10;;;;;;;0.70;0.70;;;;;;;;;;7363583;19;161722;-17
2021/10/26 10:25:44;;;;;;;0.65;0.65;;;;;;;;;;7362322;19;162474;-23
2021/10/26 10:28:21;;;;;;;0.60;0.60;;;;;;;;;;7368098;19;154310;-17
2021/10/26 10:30:55;;;;;;;0.55;0.55;;;;;;;;;;7364230;19;153469;-15
2021/10/26 10:33:27;;;;;;;0.60;0.60;;;;;;;;;;7363416;19;161741;-15
2021/10/26 10:36:00;;;;;;;0.60;0.60;;;;;;;;;;7363573;19;162482;-18
2021/10/26 10:38:32;;;;;;;0.43;0.43;;;;;;;;;;7364045;19;153885;-15
2021/10/26 10:41:23;;;;;;;0.60;0.60;;;;;;;;;;7364317;19;153689;-15
2021/10/26 10:43:58;;;;;;;1.20;0.65;;;;;;;;;;7365910;19;162113;-16
2021/10/26 10:46:43;;;;;;;0.47;0.47;;;;;;;;;;7361453;19;162500;-15
2021/10/26 10:49:44;;;;;;;1.35;0.63;;;;;;;;;;7364633;19;154061;-14
2021/10/26 10:52:20;;;;;;;0.60;0.60;;;;;;;;;;7366869;19;154208;-16
2021/10/26 10:54:53;;;;;;;0.77;0.70;;;;;;;;;;7366302;19;161975;-24
2021/10/26 10:57:30;;;;;;;1.08;0.75;;;;;;;;;;7341012;19;162636;-15
2021/10/26 11:00:11;;;;;;;0.70;0.60;;;;;;;;;;7336863;19;153933;-16
2021/10/26 11:02:49;;;;;;;1.30;0.80;;;;;;;;;;7335524;19;153537;-17
2021/10/26 11:05:42;;;;;;;0.70;0.70;;;;;;;;;;7335337;19;161908;-15
2021/10/26 11:08:13;;;;;;;0.60;0.60;;;;;;;;;;7337606;19;162404;-17
2021/10/26 11:11:09;;;;;;;0.70;0.70;;;;;;;;;;7334024;19;153922;-14
2021/10/26 11:13:40;;;;;;;1.27;0.60;;;;;;;;;;7334943;19;153617;-14
2021/10/26 11:16:15;;;;;;;1.15;0.93;;;;;;;;;;7335726;19;161586;-14
2021/10/26 11:18:47;;;;;;;0.80;0.80;;;;;;;;;;7334810;19;162555;-17
2021/10/26 11:21:46;;;;;;;0.85;0.85;;;;;;;;;;7336723;19;154226;-16
2021/10/26 11:24:17;;;;;;;2.15;0.90;;;;;;;;;;7332676;19;153803;-16
2021/10/26 11:26:48;;;;;;;0.73;0.73;;;;;;;;;;7333947;19;162209;-15
2021/10/26 11:29:31;;;;;;;1.75;1.05;;;;;;;;;;7336889;19;162371;-16
2021/10/26 11:32:16;;;;;;;1.00;0.90;;;;;;;;;;7333506;19;153979;-17
2021/10/26 11:34:49;;;;;;;0.75;0.73;;;;;;;;;;7334938;19;153613;-17
2021/10/26 11:37:24;;;;;;;1.40;0.75;;;;;;;;;;7336559;19;162016;-16
2021/10/26 11:40:08;;;;;;;0.93;0.88;;;;;;;;;;7332816;19;162388;-16
2021/10/26 11:42:41;;;;;;;1.02;0.95;;;;;;;;;;7333747;19;154132;-16
2021/10/26 11:45:14;;;;;;;1.02;1.02;;;;;;;;;;7335283;19;153506;-17
2021/10/26 11:47:48;;;;;;;1.20;1.10;;;;;;;;;;7332929;19;161844;-17
2021/10/26 11:50:26;;;;;;;1.40;1.30;;;;;;;;;;7335268;19;162563;-15
2021/10/26 11:52:57;;;;;;;1.50;1.38;;;;;;;;;;7334897;19;153930;-18
2021/10/26 11:55:30;;;;;;;1.33;1.23;;;;;;;;;;7333289;19;153642;-17
2021/10/26 11:58:01;;;;;;;1.40;1.30;;;;;;;;;;7334532;19;161882;-18
2021/10/26 12:00:40;;;;;;;1.48;1.20;;;;;;;;;;7335034;19;162400;-15
2021/10/26 12:03:14;;;;;;;0.90;0.90;;;;;;;;;;7336315;19;153993;-17
2021/10/26 12:05:45;;;;;;;1.33;1.23;;;;;;;;;;7334577;19;153522;-16
2021/10/26 12:08:26;;;;;;;1.30;1.20;;;;;;;;;;7332059;19;161810;-16
2021/10/26 12:11:06;;;;;;;0.90;0.90;;;;;;;;;;7333348;19;162058;-17
2021/10/26 12:13:38;;;;;;;1.40;1.30;;;;;;;;;;7335539;19;154125;-17
2021/10/26 12:16:15;;;;;;;1.00;1.00;;;;;;;;;;7335056;19;153756;-15
2021/10/26 12:18:49;;;;;;;1.00;1.00;;;;;;;;;;7332015;19;161832;-16
2021/10/26 12:21:21;;;;;;;1.10;1.10;;;;;;;;;;7334106;19;162300;-16
2021/10/26 12:23:54;;;;;;;1.27;1.17;;;;;;;;;;7330271;19;154522;-14
2021/10/26 12:26:26;;;;;;;1.10;1.10;;;;;;;;;;7330952;19;153564;-16
2021/10/26 12:28:58;;;;;;;1.00;1.00;;;;;;;;;;7329959;19;162230;-15
2021/10/26 12:31:31;;;;;;;0.88;0.88;;;;;;;;;;7332975;19;162788;-15
2021/10/26 12:34:05;;;;;;;0.85;0.85;;;;;;;;;;7331298;19;153987;-15
2021/10/26 12:36:37;;;;;;;1.13;1.02;;;;;;;;;;7333897;19;153915;-14
2021/10/26 12:39:08;;;;;;;1.00;1.00;;;;;;;;;;7335401;19;161817;-12
2021/10/26 12:41:41;;;;;;;1.00;1.00;;;;;;;;;;7331056;19;162485;-13
2021/10/26 12:44:17;;;;;;;1.00;0.95;;;;;;;;;;7326629;19;154008;-15
2021/10/26 12:47:05;;;;;;;0.98;0.98;;;;;;;;;;7334389;19;153737;-13
2021/10/26 12:49:41;;;;;;;0.80;0.80;;;;;;;;;;7331103;19;162049;-18
2021/10/26 12:52:17;;;;;;;1.10;1.00;;;;;;;;;;7330822;19;162460;-22
2021/10/26 12:54:49;;;;;;;0.90;0.90;;;;;;;;;;7330689;19;153931;-16
2021/10/26 12:57:38;;;;;;;1.10;1.00;;;;;;;;;;7331320;19;153785;-14
2021/10/26 13:00:22;;;;;;;1.27;1.00;;;;;;;;;;7329337;19;163325;-15
2021/10/26 13:03:10;;;;;;;1.15;1.02;;;;;;;;;;7330901;19;162360;-16
2021/10/26 13:05:54;;;;;;;1.30;1.20;;;;;;;;;;7331283;19;154009;-15
2021/10/26 13:08:26;;;;;;;0.70;0.70;;;;;;;;;;7328683;19;153632;-17
2021/10/26 13:10:57;;;;;;;1.10;1.00;;;;;;;;;;7330705;19;161873;-16
2021/10/26 13:13:28;;;;;;;0.90;0.90;;;;;;;;;;7330572;19;162449;-15
2021/10/26 13:15:59;;;;;;;1.25;0.80;;;;;;;;;;7335261;19;153930;-15
2021/10/26 13:18:31;;;;;;;1.02;1.00;;;;;;;;;;7330807;19;153480;-16
2021/10/26 13:21:18;;;;;;;0.80;0.80;;;;;;;;;;7329741;19;161871;-17
2021/10/26 13:23:49;;;;;;;0.80;0.80;;;;;;;;;;7330566;19;162315;-20
2021/10/26 13:26:22;;;;;;;2.70;1.20;;;;;;;;;;7330826;19;153893;-16
2021/10/26 13:28:53;;;;;;;1.00;1.00;;;;;;;;;;7327838;19;153426;-17
2021/10/26 13:31:25;;;;;;;2.70;1.10;;;;;;;;;;7330001;19;161823;-15
2021/10/26 13:33:56;;;;;;;1.73;1.10;;;;;;;;;;7329190;19;162578;-16
2021/10/26 13:36:33;;;;;;;1.33;1.10;;;;;;;;;;7332856;19;154007;-16
2021/10/26 13:39:07;;;;;;;1.83;1.15;;;;;;;;;;7329713;19;153500;-16
2021/10/26 13:41:43;;;;;;;3.00;1.20;;;;;;;;;;7328243;19;162069;-17
2021/10/26 13:44:16;;;;;;;1.10;1.10;;;;;;;;;;7329564;19;162325;-16
2021/10/26 13:46:47;;;;;;;0.90;0.90;;;;;;;;;;7328818;19;154078;-14
2021/10/26 13:49:18;;;;;;;1.10;1.00;;;;;;;;;;7333919;19;153711;-17
2021/10/26 13:51:52;;;;;;;1.23;0.70;;;;;;;;;;7329841;19;162226;-16
2021/10/26 13:54:25;;;;;;;0.80;0.80;;;;;;;;;;7329646;19;162351;-17
2021/10/26 13:56:56;;;;;;;2.17;0.87;;;;;;;;;;7326034;19;153975;-18
2021/10/26 13:59:27;;;;;;;0.70;0.70;;;;;;;;;;7329607;19;153547;-15
2021/10/26 14:02:09;;;;;;;1.20;0.80;;;;;;;;;;7332242;19;162172;-16
2021/10/26 14:04:40;;;;;;;0.80;0.68;;;;;;;;;;7332599;19;162586;-17
2021/10/26 14:07:14;;;;;;;0.95;0.90;;;;;;;;;;7332953;19;154639;-17
2021/10/26 14:09:46;;;;;;;0.60;0.60;;;;;;;;;;7331844;19;153526;-16
2021/10/26 14:12:17;;;;;;;1.15;0.70;;;;;;;;;;7328931;19;162048;-17
2021/10/26 14:14:48;;;;;;;1.52;0.80;;;;;;;;;;7328967;19;162333;-17
2021/10/26 14:17:19;;;;;;;0.65;0.63;;;;;;;;;;7329243;19;154207;-16
2021/10/26 14:19:51;;;;;;;0.70;0.70;;;;;;;;;;7328970;19;153491;-16
2021/10/26 14:22:25;;;;;;;0.70;0.70;;;;;;;;;;7328700;19;161880;-17
2021/10/26 14:24:57;;;;;;;0.70;0.60;;;;;;;;;;7328567;19;162922;-17
2021/10/26 14:27:28;;;;;;;1.60;0.90;;;;;;;;;;7328654;19;154043;-16
2021/10/26 14:30:00;;;;;;;0.65;0.65;;;;;;;;;;7328803;19;153756;-17
2021/10/26 14:32:31;;;;;;;0.75;0.75;;;;;;;;;;7332360;19;161930;-15
2021/10/26 14:35:04;;;;;;;0.60;0.60;;;;;;;;;;7335226;19;162348;-17
2021/10/26 14:37:47;;;;;;;0.70;0.70;;;;;;;;;;7335735;19;154108;-14
2021/10/26 14:40:35;;;;;;;;;;;;;;;;;;7335825;19;153501;-15
2021/10/26 14:54:18;;;;;;;0.52;0.52;;;;;;;;;;7334068;19;161836;-16
2021/10/26 14:56:49;;;;;;;0.63;0.63;;;;;;;;;;7332104;19;162550;-13
2021/10/26 14:59:20;;;;;;;0.65;0.63;;;;;;;;;;7334976;19;153968;-14
2021/10/26 15:01:51;;;;;;;0.50;0.50;;;;;;;;;;7335845;19;153700;-15
2021/10/26 15:04:22;;;;;;;0.80;0.70;;;;;;;;;;7337340;19;161852;-15
2021/10/26 15:06:56;;;;;;;0.70;0.70;;;;;;;;;;7337238;19;162489;-16
2021/10/26 15:09:34;;;;;;;0.50;0.50;;;;;;;;;;7334363;19;154140;-13
2021/10/26 15:12:12;;;;;;;0.52;0.52;;;;;;;;;;7337430;19;153621;-17
2021/10/26 15:14:46;;;;;;;0.60;0.60;;;;;;;;;;7335940;19;161949;-16
2021/10/26 15:17:17;;;;;;;0.60;0.60;;;;;;;;;;7333929;19;162431;-17
2021/10/26 15:19:50;;;;;;;0.75;0.60;;;;;;;;;;7334517;19;153951;-14
2021/10/26 15:22:31;;;;;;;;;;;;;;;;;;7334960;19;153531;-16
2021/10/26 15:25:16;;;;;;;0.65;0.65;;;;;;;;;;7333804;19;161982;-17
2021/10/26 15:33:23;;;;;;;0.68;0.68;;;;;;;;;;7333835;19;153521;-17
2021/10/26 15:35:56;;;;;;;0.68;0.60;;;;;;;;;;7332370;19;161983;-16
2021/10/26 15:38:29;;;;;;;0.50;0.50;;;;;;;;;;7333315;19;162535;-15
2021/10/26 15:41:05;;;;;;;0.57;0.55;;;;;;;;;;7333817;19;153979;-17
2021/10/26 15:43:37;;;;;;;1.17;0.50;;;;;;;;;;7333208;19;153593;-17
2021/10/26 15:46:09;;;;;;;0.87;0.63;;;;;;;;;;7333185;19;162048;-15
2021/10/26 15:48:40;;;;;;;0.50;0.50;;;;;;;;;;7332689;19;162602;-15
2021/10/26 15:51:13;;;;;;;0.40;0.40;;;;;;;;;;7332474;19;154090;-17
2021/10/26 15:53:45;;;;;;;0.77;0.60;;;;;;;;;;7333315;19;153512;-16
2021/10/26 15:56:18;;;;;;;1.10;0.60;;;;;;;;;;7330482;19;161836;-17
2021/10/26 15:58:50;;;;;;;0.60;0.60;;;;;;;;;;7332553;19;162419;-15
2021/10/26 16:01:21;;;;;;;1.63;1.00;;;;;;;;;;7333223;19;154024;-16
2021/10/26 16:03:53;;;;;;;0.60;0.60;;;;;;;;;;7333095;19;153494;-16
2021/10/26 16:06:24;;;;;;;1.27;0.90;;;;;;;;;;7332447;19;161793;-17
2021/10/26 16:08:55;;;;;;;0.80;0.52;;;;;;;;;;7331544;19;162558;-16
2021/10/26 16:11:33;;;;;;;0.57;0.57;;;;;;;;;;7331772;19;154351;-14
2021/10/26 16:14:07;;;;;;;0.75;0.70;;;;;;;;;;7332940;19;153497;-15
2021/10/26 16:16:39;;;;;;;0.70;0.70;;;;;;;;;;7331563;19;161699;-18
2021/10/26 16:19:10;;;;;;;0.70;0.70;;;;;;;;;;7332394;19;162431;-17
2021/10/26 16:21:43;;;;;;;0.50;0.50;;;;;;;;;;7332329;19;154275;-16
2021/10/26 16:24:15;;;;;;;0.67;0.60;;;;;;;;;;7332445;19;153651;-16
2021/10/26 16:26:49;;;;;;;0.70;0.70;;;;;;;;;;7331920;19;161779;-17
2021/10/26 16:29:20;;;;;;;0.75;0.60;;;;;;;;;;7331110;19;162513;-14
2021/10/26 16:31:52;;;;;;;1.70;0.70;;;;;;;;;;7332350;19;153715;-17
2021/10/26 16:34:23;;;;;;;0.70;0.70;;;;;;;;;;7330810;19;153506;-14
2021/10/26 16:36:59;;;;;;;1.23;0.80;;;;;;;;;;7331744;19;161842;-17
2021/10/26 16:39:30;;;;;;;0.77;0.70;;;;;;;;;;7331780;19;162418;-15
2021/10/26 16:42:10;;;;;;;0.82;0.75;;;;;;;;;;7332125;19;153938;-16
2021/10/26 16:44:53;;;;;;;0.65;0.60;;;;;;;;;;7332082;19;153740;-17
2021/10/26 16:47:25;;;;;;;0.60;0.60;;;;;;;;;;7331553;19;162109;-18
2021/10/26 16:49:56;;;;;;;0.97;0.77;;;;;;;;;;7329572;19;162607;-17
2021/10/26 16:52:27;;;;;;;0.60;0.60;;;;;;;;;;7330353;19;153977;-18
2021/10/26 16:54:59;;;;;;;0.95;0.70;;;;;;;;;;7328668;19;153552;-15
2021/10/26 16:57:33;;;;;;;0.60;0.60;;;;;;;;;;7330661;19;161895;-17
2021/10/26 17:00:06;;;;;;;0.60;0.60;;;;;;;;;;7331200;19;162646;-15
2021/10/26 17:02:42;;;;;;;0.50;0.50;;;;;;;;;;7331315;19;153986;-15
2021/10/26 17:05:14;;;;;;;0.60;0.60;;;;;;;;;;7331038;19;153663;-17
2021/10/26 17:07:45;;;;;;;0.90;0.60;;;;;;;;;;7333416;19;162030;-17
2021/10/26 17:10:16;;;;;;;0.60;0.60;;;;;;;;;;7329244;19;162477;-17
2021/10/26 17:12:53;;;;;;;0.50;0.50;;;;;;;;;;7328337;19;154017;-15
2021/10/26 17:15:25;;;;;;;0.70;0.60;;;;;;;;;;7330558;19;153549;-17
2021/10/26 17:17:57;;;;;;;0.60;0.50;;;;;;;;;;7329385;19;161794;-17
2021/10/26 17:20:28;;;;;;;0.68;0.68;;;;;;;;;;7330566;19;162315;-15
2021/10/26 17:23:00;;;;;;;0.50;0.50;;;;;;;;;;7329926;19;154645;-16
2021/10/26 17:25:33;;;;;;;0.50;0.50;;;;;;;;;;7330783;19;153500;-15
2021/10/26 17:28:07;;;;;;;0.45;0.45;;;;;;;;;;7329110;19;161867;-15
2021/10/26 17:30:45;;;;;;;0.40;0.40;;;;;;;;;;7328386;19;162436;-16
2021/10/26 17:33:17;;;;;;;0.50;0.50;;;;;;;;;;7330494;19;154111;-16
2021/10/26 17:35:50;;;;;;;0.38;0.38;;;;;;;;;;7329385;19;153710;-15
2021/10/26 17:38:21;;;;;;;0.50;0.50;;;;;;;;;;7329327;19;161807;-17
2021/10/26 17:41:02;;;;;;;0.40;0.40;;;;;;;;;;7329589;19;162387;-16
2021/10/26 17:43:37;;;;;;;0.40;0.40;;;;;;;;;;7330078;19;154226;-15
2021/10/26 17:46:09;;;;;;;0.60;0.60;;;;;;;;;;7329983;19;153703;-17
2021/10/26 17:48:41;;;;;;;0.47;0.47;;;;;;;;;;7329224;19;161798;-17
2021/10/26 17:51:14;;;;;;;0.65;0.60;;;;;;;;;;7331557;19;162556;-17
2021/10/26 17:53:46;;;;;;;0.45;0.45;;;;;;;;;;7331933;19;153963;-17
2021/10/26 17:56:18;;;;;;;0.65;0.65;;;;;;;;;;7330626;19;153491;-15
2021/10/26 17:58:52;;;;;;;0.40;0.40;;;;;;;;;;7331821;19;162051;-17
2021/10/26 18:01:23;;;;;;;0.70;0.70;;;;;;;;;;7328934;19;162347;-15
2021/10/26 18:03:56;;;;;;;0.50;0.50;;;;;;;;;;7329735;19;153951;-19
2021/10/26 18:06:28;;;;;;;0.52;0.52;;;;;;;;;;7330433;19;153494;-19
2021/10/26 18:09:04;;;;;;;0.55;0.55;;;;;;;;;;7338830;19;162085;-18
2021/10/26 18:11:38;;;;;;;0.73;0.70;;;;;;;;;;7334797;19;162559;-17
2021/10/26 18:14:13;;;;;;;0.50;0.50;;;;;;;;;;7338855;19;154096;-15
2021/10/26 18:16:54;;;;;;;0.70;0.70;;;;;;;;;;7339342;19;153589;-17
2021/10/26 18:19:26;;;;;;;1.27;0.70;;;;;;;;;;7335438;19;161875;-16
2021/10/26 18:21:57;;;;;;;0.63;0.47;;;;;;;;;;7335427;19;162453;-17
2021/10/26 18:24:29;;;;;;;0.70;0.70;;;;;;;;;;7335607;19;154086;-17
2021/10/26 18:27:00;;;;;;;0.60;0.60;;;;;;;;;;7335650;19;153654;-16
2021/10/26 18:29:35;;;;;;;0.50;0.50;;;;;;;;;;7335141;19;161973;-18
2021/10/26 18:32:07;;;;;;;1.30;0.65;;;;;;;;;;7332945;19;162557;-16
2021/10/26 18:34:39;;;;;;;0.63;0.63;;;;;;;;;;7335419;19;153970;-16
2021/10/26 18:37:10;;;;;;;0.60;0.60;;;;;;;;;;7335449;19;153602;-16
2021/10/26 18:39:41;;;;;;;0.80;0.63;;;;;;;;;;7335238;19;161800;-15
2021/10/26 18:42:13;;;;;;;0.40;0.40;;;;;;;;;;7335070;19;162403;-17
2021/10/26 18:44:51;;;;;;;0.52;0.52;;;;;;;;;;7335158;19;154332;-27
2021/10/26 18:47:23;;;;;;;0.50;0.50;;;;;;;;;;7335416;19;153531;-17
2021/10/26 18:49:55;;;;;;;0.60;0.60;;;;;;;;;;7334729;19;161826;-18
2021/10/26 18:52:27;;;;;;;0.70;0.70;;;;;;;;;;7332527;19;162360;-14
2021/10/26 18:54:58;;;;;;;2.10;0.80;;;;;;;;;;7334644;19;153963;-17
2021/10/26 18:57:29;;;;;;;0.68;0.68;;;;;;;;;;7334745;19;153686;-16
2021/10/26 19:00:03;;;;;;;0.60;0.60;;;;;;;;;;7334372;19;161933;-16
2021/10/26 19:02:35;;;;;;;0.80;0.80;;;;;;;;;;7337965;19;162551;-16
2021/10/26 19:05:07;;;;;;;0.80;0.80;;;;;;;;;;7331673;19;154102;-16
2021/10/26 19:07:39;;;;;;;1.43;0.60;;;;;;;;;;7334469;19;153994;-15
2021/10/26 19:10:11;;;;;;;0.95;0.95;;;;;;;;;;7334178;19;161522;-18
2021/10/26 19:12:46;;;;;;;0.80;0.80;;;;;;;;;;7331567;19;162341;-18
2021/10/26 19:15:20;;;;;;;1.25;0.90;;;;;;;;;;7334407;19;153960;-17
2021/10/26 19:17:54;;;;;;;1.13;1.00;;;;;;;;;;7332743;19;153540;-16
2021/10/26 19:20:26;;;;;;;0.75;0.75;;;;;;;;;;7333391;19;161814;-15
2021/10/26 19:22:57;;;;;;;2.22;1.27;;;;;;;;;;7333682;19;162381;-18
2021/10/26 19:25:29;;;;;;;0.82;0.82;;;;;;;;;;7333015;19;153980;-16
2021/10/26 19:28:01;;;;;;;0.87;0.87;;;;;;;;;;7334485;19;153681;-17
2021/10/26 19:30:36;;;;;;;1.00;1.00;;;;;;;;;;7332949;19;161852;-19
2021/10/26 19:33:09;;;;;;;0.93;0.93;;;;;;;;;;7332835;19;162468;-15
2021/10/26 19:35:40;;;;;;;1.17;1.07;;;;;;;;;;7336379;19;153988;-17
2021/10/26 19:38:12;;;;;;;1.25;1.10;;;;;;;;;;7337247;19;153705;-18
2021/10/26 19:40:43;;;;;;;1.08;1.00;;;;;;;;;;7336407;19;161828;-16
2021/10/26 19:43:24;;;;;;;1.33;1.23;;;;;;;;;;7336482;19;162809;-18
2021/10/26 19:45:58;;;;;;;1.45;1.35;;;;;;;;;;7336394;19;153988;-17
2021/10/26 19:48:30;;;;;;;2.03;1.40;;;;;;;;;;7336630;19;153555;-15
2021/10/26 19:51:02;;;;;;;1.40;1.30;;;;;;;;;;7336142;19;161820;-15
2021/10/26 19:53:33;;;;;;;1.67;1.27;;;;;;;;;;7335196;19;162422;-16
2021/10/26 19:56:05;;;;;;;1.38;1.27;;;;;;;;;;7334655;19;154120;-17
2021/10/26 19:58:36;;;;;;;1.75;1.30;;;;;;;;;;7336642;19;153642;-14
2021/10/26 20:01:11;;;;;;;1.38;1.27;;;;;;;;;;7336018;19;161860;-15
2021/10/26 20:03:44;;;;;;;1.00;1.00;;;;;;;;;;7336214;19;162605;-18
2021/10/26 20:06:15;;;;;;;2.47;1.30;;;;;;;;;;7335891;19;154221;-17
2021/10/26 20:08:46;;;;;;;1.50;1.40;;;;;;;;;;7335535;19;153577;-17
2021/10/26 20:11:18;;;;;;;1.27;1.02;;;;;;;;;;7333038;19;162049;-16
2021/10/26 20:13:50;;;;;;;2.15;1.30;;;;;;;;;;7334424;19;162321;-19
2021/10/26 20:16:25;;;;;;;1.63;1.52;;;;;;;;;;7332142;19;153952;-18
2021/10/26 20:19:01;;;;;;;1.10;1.10;;;;;;;;;;7331280;19;153518;-20
2021/10/26 20:21:36;;;;;;;1.10;1.10;;;;;;;;;;7330555;19;162073;-15
2021/10/26 20:26:59;;;;;;;1.40;1.30;;;;;;;;;;7332088;19;154211;-17
2021/10/26 20:29:30;;;;;;;1.10;1.10;;;;;;;;;;7329446;19;153560;-17
2021/10/26 20:32:05;;;;;;;1.63;1.27;;;;;;;;;;7331340;19;161985;-16
2021/10/26 20:34:36;;;;;;;1.10;1.10;;;;;;;;;;7331419;19;162446;-17
2021/10/26 20:37:08;;;;;;;1.00;0.80;;;;;;;;;;7331823;19;154048;-17
2021/10/26 20:39:40;;;;;;;1.30;1.20;;;;;;;;;;7331409;19;153560;-15
2021/10/26 20:42:11;;;;;;;1.23;1.15;;;;;;;;;;7331094;19;162113;-18
2021/10/26 20:44:43;;;;;;;3.65;1.40;;;;;;;;;;7331286;19;162635;-21
2021/10/26 20:47:17;;;;;;;1.00;1.00;;;;;;;;;;7330235;19;154336;-18
2021/10/26 20:49:49;;;;;;;1.13;1.13;;;;;;;;;;7331485;19;153559;-17
2021/10/26 20:52:21;;;;;;;1.37;1.20;;;;;;;;;;7329899;19;161816;-19
2021/10/26 20:54:56;;;;;;;1.33;1.23;;;;;;;;;;7323357;19;162759;-16
2021/10/26 20:57:27;;;;;;;1.30;1.20;;;;;;;;;;7333302;19;153947;-19
2021/10/26 20:59:59;;;;;;;1.10;1.00;;;;;;;;;;7330994;19;153558;-16
2021/10/26 21:02:34;;;;;;;1.00;1.00;;;;;;;;;;7332782;19;161723;-14
2021/10/26 21:05:06;;;;;;;1.00;1.00;;;;;;;;;;7333673;19;162513;-14
2021/10/26 21:07:37;;;;;;;0.98;0.98;;;;;;;;;;7332124;19;153954;-16
2021/10/26 21:10:09;;;;;;;0.85;0.85;;;;;;;;;;7332873;19;153495;-16
2021/10/26 21:12:41;;;;;;;1.00;1.00;;;;;;;;;;7333004;19;161799;-17
2021/10/26 21:15:12;;;;;;;1.00;1.00;;;;;;;;;;7330315;19;162557;-19
2021/10/26 21:17:46;;;;;;;1.30;1.20;;;;;;;;;;7329772;19;154003;-16
2021/10/26 21:20:17;;;;;;;1.25;1.15;;;;;;;;;;7329017;19;153489;-17
2021/10/26 21:22:49;;;;;;;0.90;0.90;;;;;;;;;;7330152;19;161898;-16
2021/10/26 21:25:20;;;;;;;1.00;1.00;;;;;;;;;;7330343;19;162396;-14
2021/10/26 21:27:51;;;;;;;1.17;1.10;;;;;;;;;;7332846;19;153955;-16
2021/10/26 21:30:26;;;;;;;1.30;1.00;;;;;;;;;;7332707;19;153762;-17
2021/10/26 21:33:01;;;;;;;1.33;1.23;;;;;;;;;;7333301;19;161789;-16
2021/10/26 21:35:35;;;;;;;1.08;1.00;;;;;;;;;;7331033;19;162674;-20
2021/10/26 21:38:15;;;;;;;1.00;1.00;;;;;;;;;;7334572;19;154051;-16
2021/10/26 21:40:49;;;;;;;1.08;1.08;;;;;;;;;;7329793;19;153810;-17
2021/10/26 21:43:21;;;;;;;0.90;0.90;;;;;;;;;;7333550;19;162033;-16
2021/10/26 21:45:54;;;;;;;1.17;1.08;;;;;;;;;;7329983;19;162380;-16
2021/10/26 21:48:28;;;;;;;1.20;1.10;;;;;;;;;;7329282;19;154154;-14
2021/10/26 21:50:59;;;;;;;0.90;0.90;;;;;;;;;;7330442;19;153871;-15
2021/10/26 21:53:31;;;;;;;1.15;1.02;;;;;;;;;;7331447;19;161865;-16
2021/10/26 21:56:02;;;;;;;0.80;0.80;;;;;;;;;;7328097;19;162500;-15
2021/10/26 21:58:34;;;;;;;1.20;1.00;;;;;;;;;;7332131;19;153924;-18
2021/10/26 22:01:06;;;;;;;0.90;0.90;;;;;;;;;;7329167;19;153860;-18
2021/10/26 22:03:40;;;;;;;0.80;0.80;;;;;;;;;;7327322;19;162140;-17
2021/10/26 22:06:12;;;;;;;0.80;0.80;;;;;;;;;;7331254;19;162404;-17
2021/10/26 22:08:44;;;;;;;1.20;1.10;;;;;;;;;;7333371;19;153985;-17
2021/10/26 22:11:15;;;;;;;1.25;1.00;;;;;;;;;;7328564;19;153429;-16
2021/10/26 22:13:46;;;;;;;1.00;1.00;;;;;;;;;;7327227;19;161775;-17
2021/10/26 22:16:18;;;;;;;0.90;0.90;;;;;;;;;;7328224;19;162480;-17
2021/10/26 22:18:52;;;;;;;0.90;0.90;;;;;;;;;;7327329;19;154141;-23
2021/10/26 22:21:23;;;;;;;1.02;0.98;;;;;;;;;;7328360;19;154198;-17
2021/10/26 22:23:55;;;;;;;1.20;1.10;;;;;;;;;;7327968;19;162005;-15
2021/10/26 22:26:28;;;;;;;1.05;1.05;;;;;;;;;;7328045;19;162449;-18
2021/10/26 22:29:00;;;;;;;0.77;0.77;;;;;;;;;;7327428;19;154338;-17
2021/10/26 22:31:31;;;;;;;0.80;0.80;;;;;;;;;;7327074;19;153551;-15
2021/10/26 22:34:05;;;;;;;1.23;1.00;;;;;;;;;;7324967;19;162220;-16
2021/10/26 22:36:37;;;;;;;1.25;1.10;;;;;;;;;;7326815;19;162562;-18
2021/10/26 22:39:09;;;;;;;0.98;0.98;;;;;;;;;;7328591;19;154037;-20
2021/10/26 22:41:40;;;;;;;0.77;0.77;;;;;;;;;;7331877;19;153558;-18
2021/10/26 22:44:11;;;;;;;0.90;0.90;;;;;;;;;;7330298;19;161899;-17
2021/10/26 22:46:42;;;;;;;0.80;0.80;;;;;;;;;;7328593;19;162547;-17
2021/10/26 22:49:17;;;;;;;1.10;1.00;;;;;;;;;;7327888;19;154035;-18
2021/10/26 22:51:49;;;;;;;0.93;0.93;;;;;;;;;;7327842;19;153433;-17
2021/10/26 22:54:23;;;;;;;1.10;1.10;;;;;;;;;;7330345;19;162487;-17
2021/10/26 22:56:55;;;;;;;0.82;0.82;;;;;;;;;;7330558;19;162367;-18
2021/10/26 22:59:26;;;;;;;0.65;0.65;;;;;;;;;;7334430;19;154021;-18
2021/10/26 23:01:58;;;;;;;1.33;1.00;;;;;;;;;;7333425;19;153661;-18
2021/10/26 23:04:32;;;;;;;0.90;0.90;;;;;;;;;;7334002;19;161977;-17
2021/10/26 23:07:03;;;;;;;0.90;0.90;;;;;;;;;;7334209;19;162780;-16
2021/10/26 23:09:35;;;;;;;0.93;0.90;;;;;;;;;;7332731;19;154160;-16
2021/10/26 23:12:07;;;;;;;0.90;0.90;;;;;;;;;;7334517;19;153723;-17
2021/10/26 23:14:38;;;;;;;1.15;0.90;;;;;;;;;;7334490;19;161885;-15
2021/10/26 23:17:10;;;;;;;0.90;0.90;;;;;;;;;;7337057;19;162490;-16
2021/10/26 23:19:44;;;;;;;0.90;0.90;;;;;;;;;;7336460;19;154283;-18
2021/10/26 23:22:15;;;;;;;0.82;0.82;;;;;;;;;;7333840;19;153513;-16
2021/10/26 23:24:47;;;;;;;0.73;0.73;;;;;;;;;;7333478;19;161783;-17
2021/10/26 23:27:18;;;;;;;0.82;0.82;;;;;;;;;;7333458;19;162503;-17
2021/10/26 23:29:49;;;;;;;0.70;0.70;;;;;;;;;;7333839;19;154020;-15
2021/10/26 23:32:23;;;;;;;0.80;0.80;;;;;;;;;;7333644;19;153603;-18
2021/10/26 23:34:57;;;;;;;1.00;1.00;;;;;;;;;;7331488;19;163055;-17
2021/10/26 23:37:29;;;;;;;0.80;0.80;;;;;;;;;;7332847;19;162389;-17
2021/10/26 23:40:01;;;;;;;0.90;0.90;;;;;;;;;;7333284;19;153964;-17
2021/10/26 23:42:33;;;;;;;0.80;0.80;;;;;;;;;;7332139;19;154068;-17
2021/10/26 23:45:05;;;;;;;0.80;0.80;;;;;;;;;;7332939;19;161922;-17
2021/10/26 23:47:37;;;;;;;0.70;0.70;;;;;;;;;;7333079;19;162641;-17
2021/10/26 23:50:12;;;;;;;0.90;0.90;;;;;;;;;;7333078;19;154215;-16
2021/10/26 23:52:43;;;;;;;0.70;0.70;;;;;;;;;;7332908;19;153678;-16
2021/10/26 23:55:14;;;;;;;0.80;0.80;;;;;;;;;;7330975;19;161932;-16
2021/10/26 23:57:46;;;;;;;0.82;0.82;;;;;;;;;;7332399;19;162543;-17
